sensor_id;sensor_type;location;lat;lon;timestamp;temperature;humidity
35894;DHT22;21994;48.204;16.516;2023-02-15T00:01:48;2.50;99.90
35894;DHT22;21994;48.204;16.516;2023-02-15T00:04:14;2.40;99.90
35894;DHT22;21994;48.204;16.516;2023-02-15T00:06:41;2.30;99.90
35894;DHT22;21994;48.204;16.516;2023-02-15T00:09:08;2.10;99.90
35894;DHT22;21994;48.204;16.516;2023-02-15T00:11:34;2.00;99.90
35894;DHT22;21994;48.204;16.516;2023-02-15T00:14:10;1.90;99.90
35894;DHT22;21994;48.204;16.516;2023-02-15T00:16:41;1.70;99.90
35894;DHT22;21994;48.204;16.516;2023-02-15T00:19:09;1.60;99.90
35894;DHT22;21994;48.204;16.516;2023-02-15T00:21:35;1.40;99.90
35894;DHT22;21994;48.204;16.516;2023-02-15T00:24:02;1.30;99.90
35894;DHT22;21994;48.204;16.516;2023-02-15T00:26:29;1.30;99.90
35894;DHT22;21994;48.204;16.516;2023-02-15T00:28:55;1.20;99.90
35894;DHT22;21994;48.204;16.516;2023-02-15T00:31:23;1.20;99.90
35894;DHT22;21994;48.204;16.516;2023-02-15T00:33:49;1.10;99.90
35894;DHT22;21994;48.204;16.516;2023-02-15T00:36:15;1.00;99.90
35894;DHT22;21994;48.204;16.516;2023-02-15T00:38:41;0.90;99.90
35894;DHT22;21994;48.204;16.516;2023-02-15T00:41:07;0.90;99.90
35894;DHT22;21994;48.204;16.516;2023-02-15T00:43:34;0.80;99.90
35894;DHT22;21994;48.204;16.516;2023-02-15T00:46:01;0.80;99.90
35894;DHT22;21994;48.204;16.516;2023-02-15T00:48:27;0.80;99.90
35894;DHT22;21994;48.204;16.516;2023-02-15T00:50:54;0.80;99.90
35894;DHT22;21994;48.204;16.516;2023-02-15T00:53:25;0.70;99.90
35894;DHT22;21994;48.204;16.516;2023-02-15T00:55:51;0.80;99.90
35894;DHT22;21994;48.204;16.516;2023-02-15T00:58:17;0.90;99.90
35894;DHT22;21994;48.204;16.516;2023-02-15T01:00:43;0.70;99.90
35894;DHT22;21994;48.204;16.516;2023-02-15T01:03:10;0.70;99.90
35894;DHT22;21994;48.204;16.516;2023-02-15T01:05:36;0.80;99.90
35894;DHT22;21994;48.204;16.516;2023-02-15T01:08:02;0.80;99.90
35894;DHT22;21994;48.204;16.516;2023-02-15T01:10:28;0.70;99.90
35894;DHT22;21994;48.204;16.516;2023-02-15T01:12:54;0.70;99.90
35894;DHT22;21994;48.204;16.516;2023-02-15T01:15:21;0.80;99.90
35894;DHT22;21994;48.204;16.516;2023-02-15T01:17:47;0.80;99.90
35894;DHT22;21994;48.204;16.516;2023-02-15T01:20:18;0.80;99.90
35894;DHT22;21994;48.204;16.516;2023-02-15T01:22:45;0.80;99.90
35894;DHT22;21994;48.204;16.516;2023-02-15T01:25:11;0.80;99.90
35894;DHT22;21994;48.204;16.516;2023-02-15T01:27:36;0.70;99.90
35894;DHT22;21994;48.204;16.516;2023-02-15T01:30:02;0.70;99.90
35894;DHT22;21994;48.204;16.516;2023-02-15T01:32:30;0.70;99.90
35894;DHT22;21994;48.204;16.516;2023-02-15T01:34:56;0.70;99.90
35894;DHT22;21994;48.204;16.516;2023-02-15T01:37:22;0.70;99.90
35894;DHT22;21994;48.204;16.516;2023-02-15T01:39:47;0.80;99.90
35894;DHT22;21994;48.204;16.516;2023-02-15T01:42:13;0.80;99.90
35894;DHT22;21994;48.204;16.516;2023-02-15T01:47:14;0.90;99.90
35894;DHT22;21994;48.204;16.516;2023-02-15T01:49:42;0.90;99.90
35894;DHT22;21994;48.204;16.516;2023-02-15T01:52:09;0.90;99.90
35894;DHT22;21994;48.204;16.516;2023-02-15T01:54:37;1.00;99.90
35894;DHT22;21994;48.204;16.516;2023-02-15T01:57:08;1.10;99.90
35894;DHT22;21994;48.204;16.516;2023-02-15T01:59:37;1.10;99.90
35894;DHT22;21994;48.204;16.516;2023-02-15T02:02:05;1.20;99.90
35894;DHT22;21994;48.204;16.516;2023-02-15T02:07:12;1.20;99.90
35894;DHT22;21994;48.204;16.516;2023-02-15T02:09:40;1.20;99.90
35894;DHT22;21994;48.204;16.516;2023-02-15T02:12:06;1.30;99.90
35894;DHT22;21994;48.204;16.516;2023-02-15T02:14:32;1.20;99.90
35894;DHT22;21994;48.204;16.516;2023-02-15T02:34:21;0.90;99.90
35894;DHT22;21994;48.204;16.516;2023-02-15T02:39:40;0.90;99.90
35894;DHT22;21994;48.204;16.516;2023-02-15T02:42:29;0.90;99.90
35894;DHT22;21994;48.204;16.516;2023-02-15T02:44:59;0.80;99.90
35894;DHT22;21994;48.204;16.516;2023-02-15T02:47:36;0.90;99.90
35894;DHT22;21994;48.204;16.516;2023-02-15T02:50:05;0.80;99.90
35894;DHT22;21994;48.204;16.516;2023-02-15T03:00:27;0.70;99.90
35894;DHT22;21994;48.204;16.516;2023-02-15T03:03:00;0.70;99.90
35894;DHT22;21994;48.204;16.516;2023-02-15T03:05:30;0.80;99.90
35894;DHT22;21994;48.204;16.516;2023-02-15T03:08:00;0.80;99.90
35894;DHT22;21994;48.204;16.516;2023-02-15T03:10:31;0.80;99.90
35894;DHT22;21994;48.204;16.516;2023-02-15T03:12:58;0.90;99.90
35894;DHT22;21994;48.204;16.516;2023-02-15T03:15:28;0.90;99.90
35894;DHT22;21994;48.204;16.516;2023-02-15T03:18:16;0.90;99.90
35894;DHT22;21994;48.204;16.516;2023-02-15T03:20:43;1.00;99.90
35894;DHT22;21994;48.204;16.516;2023-02-15T03:23:11;0.90;99.90
35894;DHT22;21994;48.204;16.516;2023-02-15T03:25:43;0.90;99.90
35894;DHT22;21994;48.204;16.516;2023-02-15T03:28:11;0.80;99.90
35894;DHT22;21994;48.204;16.516;2023-02-15T03:30:39;0.90;99.90
35894;DHT22;21994;48.204;16.516;2023-02-15T03:33:05;0.90;99.90
35894;DHT22;21994;48.204;16.516;2023-02-15T03:41:41;0.90;99.90
35894;DHT22;21994;48.204;16.516;2023-02-15T03:44:18;0.90;99.90
35894;DHT22;21994;48.204;16.516;2023-02-15T03:47:33;0.90;99.90
35894;DHT22;21994;48.204;16.516;2023-02-15T03:49:44;0.80;99.90
35894;DHT22;21994;48.204;16.516;2023-02-15T03:52:16;0.80;99.90
35894;DHT22;21994;48.204;16.516;2023-02-15T03:54:43;0.80;99.90
35894;DHT22;21994;48.204;16.516;2023-02-15T03:57:19;0.80;99.90
35894;DHT22;21994;48.204;16.516;2023-02-15T04:03:06;0.90;99.90
35894;DHT22;21994;48.204;16.516;2023-02-15T04:05:32;0.90;99.90
35894;DHT22;21994;48.204;16.516;2023-02-15T04:07:58;1.00;99.90
35894;DHT22;21994;48.204;16.516;2023-02-15T04:10:24;1.00;99.90
35894;DHT22;21994;48.204;16.516;2023-02-15T04:13:08;1.10;99.90
35894;DHT22;21994;48.204;16.516;2023-02-15T04:15:34;1.10;99.90
35894;DHT22;21994;48.204;16.516;2023-02-15T04:18:18;1.10;99.90
35894;DHT22;21994;48.204;16.516;2023-02-15T04:20:44;1.10;99.90
35894;DHT22;21994;48.204;16.516;2023-02-15T04:23:29;1.20;99.90
35894;DHT22;21994;48.204;16.516;2023-02-15T04:26:14;1.30;99.90
35894;DHT22;21994;48.204;16.516;2023-02-15T04:28:40;1.20;99.90
35894;DHT22;21994;48.204;16.516;2023-02-15T04:31:05;1.30;99.90
35894;DHT22;21994;48.204;16.516;2023-02-15T04:33:31;1.20;99.90
35894;DHT22;21994;48.204;16.516;2023-02-15T04:35:57;1.20;99.90
35894;DHT22;21994;48.204;16.516;2023-02-15T04:38:23;1.20;99.90
35894;DHT22;21994;48.204;16.516;2023-02-15T04:40:49;1.30;99.90
35894;DHT22;21994;48.204;16.516;2023-02-15T04:43:16;1.60;99.90
35894;DHT22;21994;48.204;16.516;2023-02-15T04:45:46;1.70;99.90
35894;DHT22;21994;48.204;16.516;2023-02-15T04:48:13;1.60;99.90
35894;DHT22;21994;48.204;16.516;2023-02-15T04:50:39;1.60;99.90
35894;DHT22;21994;48.204;16.516;2023-02-15T04:53:05;1.50;99.90
35894;DHT22;21994;48.204;16.516;2023-02-15T04:55:31;1.50;99.90
35894;DHT22;21994;48.204;16.516;2023-02-15T04:57:57;1.40;99.90
35894;DHT22;21994;48.204;16.516;2023-02-15T05:00:22;1.40;99.90
35894;DHT22;21994;48.204;16.516;2023-02-15T05:02:48;1.40;99.90
35894;DHT22;21994;48.204;16.516;2023-02-15T05:05:14;1.40;99.90
35894;DHT22;21994;48.204;16.516;2023-02-15T05:07:40;1.40;99.90
35894;DHT22;21994;48.204;16.516;2023-02-15T05:10:06;1.40;99.90
35894;DHT22;21994;48.204;16.516;2023-02-15T05:12:32;1.40;99.90
35894;DHT22;21994;48.204;16.516;2023-02-15T05:14:58;1.40;99.90
35894;DHT22;21994;48.204;16.516;2023-02-15T05:17:23;1.40;99.90
35894;DHT22;21994;48.204;16.516;2023-02-15T05:19:49;1.50;99.90
35894;DHT22;21994;48.204;16.516;2023-02-15T05:22:18;1.50;99.90
35894;DHT22;21994;48.204;16.516;2023-02-15T05:24:43;1.70;99.90
35894;DHT22;21994;48.204;16.516;2023-02-15T05:27:28;1.60;99.90
35894;DHT22;21994;48.204;16.516;2023-02-15T05:30:12;1.60;99.90
35894;DHT22;21994;48.204;16.516;2023-02-15T05:32:39;1.70;99.90
35894;DHT22;21994;48.204;16.516;2023-02-15T05:35:05;1.70;99.90
35894;DHT22;21994;48.204;16.516;2023-02-15T05:37:31;1.70;99.90
35894;DHT22;21994;48.204;16.516;2023-02-15T05:39:57;1.80;99.90
35894;DHT22;21994;48.204;16.516;2023-02-15T05:42:23;1.70;99.90
35894;DHT22;21994;48.204;16.516;2023-02-15T05:44:49;2.00;99.90
35894;DHT22;21994;48.204;16.516;2023-02-15T05:47:14;1.90;99.90
35894;DHT22;21994;48.204;16.516;2023-02-15T05:49:40;1.90;99.90
35894;DHT22;21994;48.204;16.516;2023-02-15T05:52:06;2.00;99.90
35894;DHT22;21994;48.204;16.516;2023-02-15T05:54:31;2.00;99.90
35894;DHT22;21994;48.204;16.516;2023-02-15T05:56:57;2.00;99.90
35894;DHT22;21994;48.204;16.516;2023-02-15T05:59:23;2.20;99.90
35894;DHT22;21994;48.204;16.516;2023-02-15T06:01:49;2.20;99.90
35894;DHT22;21994;48.204;16.516;2023-02-15T06:04:14;2.20;99.90
35894;DHT22;21994;48.204;16.516;2023-02-15T06:06:40;2.10;99.90
35894;DHT22;21994;48.204;16.516;2023-02-15T06:09:06;2.10;99.90
35894;DHT22;21994;48.204;16.516;2023-02-15T06:11:32;2.10;99.90
35894;DHT22;21994;48.204;16.516;2023-02-15T06:13:57;2.20;99.90
35894;DHT22;21994;48.204;16.516;2023-02-15T06:16:23;2.10;99.90
35894;DHT22;21994;48.204;16.516;2023-02-15T06:18:49;2.10;99.90
35894;DHT22;21994;48.204;16.516;2023-02-15T06:21:14;2.20;99.90
35894;DHT22;21994;48.204;16.516;2023-02-15T06:23:40;2.20;99.90
35894;DHT22;21994;48.204;16.516;2023-02-15T06:26:06;2.10;99.90
35894;DHT22;21994;48.204;16.516;2023-02-15T06:28:32;2.10;99.90
35894;DHT22;21994;48.204;16.516;2023-02-15T06:30:57;2.10;99.90
35894;DHT22;21994;48.204;16.516;2023-02-15T06:33:23;2.20;99.90
35894;DHT22;21994;48.204;16.516;2023-02-15T06:35:49;2.30;99.90
35894;DHT22;21994;48.204;16.516;2023-02-15T06:38:15;2.30;99.90
35894;DHT22;21994;48.204;16.516;2023-02-15T06:40:41;2.20;99.90
35894;DHT22;21994;48.204;16.516;2023-02-15T06:43:10;2.20;99.90
35894;DHT22;21994;48.204;16.516;2023-02-15T06:45:35;2.30;99.90
35894;DHT22;21994;48.204;16.516;2023-02-15T06:48:01;2.30;99.90
35894;DHT22;21994;48.204;16.516;2023-02-15T06:50:27;2.40;99.90
35894;DHT22;21994;48.204;16.516;2023-02-15T06:52:59;2.40;99.90
35894;DHT22;21994;48.204;16.516;2023-02-15T06:55:25;2.50;99.90
35894;DHT22;21994;48.204;16.516;2023-02-15T06:57:50;2.60;99.90
35894;DHT22;21994;48.204;16.516;2023-02-15T07:00:16;2.70;99.90
35894;DHT22;21994;48.204;16.516;2023-02-15T07:02:43;2.70;99.90
35894;DHT22;21994;48.204;16.516;2023-02-15T07:05:09;2.70;99.90
35894;DHT22;21994;48.204;16.516;2023-02-15T07:07:35;2.80;99.90
35894;DHT22;21994;48.204;16.516;2023-02-15T07:10:01;2.80;99.90
35894;DHT22;21994;48.204;16.516;2023-02-15T07:12:27;3.00;99.90
35894;DHT22;21994;48.204;16.516;2023-02-15T07:15:16;3.10;99.90
35894;DHT22;21994;48.204;16.516;2023-02-15T07:17:43;3.10;99.90
35894;DHT22;21994;48.204;16.516;2023-02-15T07:22:36;3.30;99.90
35894;DHT22;21994;48.204;16.516;2023-02-15T07:25:03;3.30;99.90
35894;DHT22;21994;48.204;16.516;2023-02-15T07:27:30;3.50;99.90
35894;DHT22;21994;48.204;16.516;2023-02-15T07:29:56;3.60;99.90
35894;DHT22;21994;48.204;16.516;2023-02-15T07:32:22;3.60;99.90
35894;DHT22;21994;48.204;16.516;2023-02-15T07:34:47;3.70;99.90
35894;DHT22;21994;48.204;16.516;2023-02-15T07:37:13;3.70;99.90
35894;DHT22;21994;48.204;16.516;2023-02-15T07:39:39;3.80;99.90
35894;DHT22;21994;48.204;16.516;2023-02-15T07:42:04;3.70;99.90
35894;DHT22;21994;48.204;16.516;2023-02-15T07:44:30;3.90;99.90
35894;DHT22;21994;48.204;16.516;2023-02-15T07:46:56;4.00;99.90
35894;DHT22;21994;48.204;16.516;2023-02-15T07:49:22;4.10;99.90
35894;DHT22;21994;48.204;16.516;2023-02-15T07:51:47;4.00;99.90
35894;DHT22;21994;48.204;16.516;2023-02-15T07:54:13;4.00;99.90
35894;DHT22;21994;48.204;16.516;2023-02-15T07:56:39;4.10;99.90
35894;DHT22;21994;48.204;16.516;2023-02-15T07:59:04;4.10;99.90
35894;DHT22;21994;48.204;16.516;2023-02-15T08:01:31;4.10;99.90
35894;DHT22;21994;48.204;16.516;2023-02-15T08:03:59;4.10;99.90
35894;DHT22;21994;48.204;16.516;2023-02-15T08:06:26;4.00;99.90
35894;DHT22;21994;48.204;16.516;2023-02-15T08:08:53;4.10;99.90
35894;DHT22;21994;48.204;16.516;2023-02-15T08:11:20;4.10;99.90
35894;DHT22;21994;48.204;16.516;2023-02-15T08:19:02;4.10;99.90
35894;DHT22;21994;48.204;16.516;2023-02-15T08:21:30;4.10;99.90
35894;DHT22;21994;48.204;16.516;2023-02-15T08:23:57;4.10;99.90
35894;DHT22;21994;48.204;16.516;2023-02-15T08:26:23;4.20;99.90
35894;DHT22;21994;48.204;16.516;2023-02-15T08:28:50;4.20;99.90
35894;DHT22;21994;48.204;16.516;2023-02-15T08:31:16;4.30;99.90
35894;DHT22;21994;48.204;16.516;2023-02-15T08:33:43;4.20;99.90
35894;DHT22;21994;48.204;16.516;2023-02-15T08:36:13;4.20;99.90
35894;DHT22;21994;48.204;16.516;2023-02-15T08:38:41;4.30;99.90
35894;DHT22;21994;48.204;16.516;2023-02-15T08:43:40;4.30;99.90
35894;DHT22;21994;48.204;16.516;2023-02-15T08:46:07;4.30;99.90
35894;DHT22;21994;48.204;16.516;2023-02-15T08:48:34;4.30;99.90
35894;DHT22;21994;48.204;16.516;2023-02-15T08:51:04;4.30;99.90
35894;DHT22;21994;48.204;16.516;2023-02-15T08:53:36;4.40;99.90
35894;DHT22;21994;48.204;16.516;2023-02-15T08:56:03;4.40;99.90
35894;DHT22;21994;48.204;16.516;2023-02-15T08:58:29;4.50;99.90
35894;DHT22;21994;48.204;16.516;2023-02-15T09:00:56;4.50;99.90
35894;DHT22;21994;48.204;16.516;2023-02-15T09:03:22;4.50;99.90
35894;DHT22;21994;48.204;16.516;2023-02-15T09:05:48;4.50;99.90
35894;DHT22;21994;48.204;16.516;2023-02-15T09:08:14;4.50;99.90
35894;DHT22;21994;48.204;16.516;2023-02-15T09:10:40;4.50;99.90
35894;DHT22;21994;48.204;16.516;2023-02-15T09:13:06;4.60;99.90
35894;DHT22;21994;48.204;16.516;2023-02-15T09:15:32;4.50;99.90
35894;DHT22;21994;48.204;16.516;2023-02-15T09:17:58;4.60;99.90
35894;DHT22;21994;48.204;16.516;2023-02-15T09:20:31;4.70;99.90
35894;DHT22;21994;48.204;16.516;2023-02-15T09:23:00;4.80;99.90
35894;DHT22;21994;48.204;16.516;2023-02-15T09:25:26;4.80;99.90
35894;DHT22;21994;48.204;16.516;2023-02-15T09:27:52;4.80;99.90
35894;DHT22;21994;48.204;16.516;2023-02-15T09:30:18;4.90;99.90
35894;DHT22;21994;48.204;16.516;2023-02-15T09:32:44;4.90;99.90
35894;DHT22;21994;48.204;16.516;2023-02-15T09:35:11;4.80;99.90
35894;DHT22;21994;48.204;16.516;2023-02-15T09:37:37;4.70;99.90
35894;DHT22;21994;48.204;16.516;2023-02-15T09:40:03;4.70;99.90
35894;DHT22;21994;48.204;16.516;2023-02-15T09:42:54;4.70;99.90
35894;DHT22;21994;48.204;16.516;2023-02-15T10:01:39;5.10;99.90
35894;DHT22;21994;48.204;16.516;2023-02-15T10:07:40;5.10;99.90
35894;DHT22;21994;48.204;16.516;2023-02-15T10:10:13;5.30;99.90
35894;DHT22;21994;48.204;16.516;2023-02-15T10:35:02;5.30;99.90
35894;DHT22;21994;48.204;16.516;2023-02-15T10:37:34;5.40;99.90
35894;DHT22;21994;48.204;16.516;2023-02-15T10:40:41;5.40;99.90
35894;DHT22;21994;48.204;16.516;2023-02-15T10:45:40;5.40;99.90
35894;DHT22;21994;48.204;16.516;2023-02-15T10:48:17;5.30;99.90
35894;DHT22;21994;48.204;16.516;2023-02-15T10:50:59;5.40;99.90
35894;DHT22;21994;48.204;16.516;2023-02-15T11:01:40;5.40;99.90
35894;DHT22;21994;48.204;16.516;2023-02-15T11:06:48;5.60;99.90
35894;DHT22;21994;48.204;16.516;2023-02-15T11:09:17;5.60;99.90
35894;DHT22;21994;48.204;16.516;2023-02-15T11:11:49;5.60;99.90
35894;DHT22;21994;48.204;16.516;2023-02-15T11:14:27;5.70;99.90
35894;DHT22;21994;48.204;16.516;2023-02-15T11:17:01;5.70;99.90
35894;DHT22;21994;48.204;16.516;2023-02-15T11:22:25;5.60;99.90
35894;DHT22;21994;48.204;16.516;2023-02-15T11:24:51;5.70;99.90
35894;DHT22;21994;48.204;16.516;2023-02-15T11:27:28;5.70;99.90
35894;DHT22;21994;48.204;16.516;2023-02-15T11:30:02;5.60;99.90
35894;DHT22;21994;48.204;16.516;2023-02-15T11:32:34;5.60;99.90
35894;DHT22;21994;48.204;16.516;2023-02-15T11:37:40;5.80;99.90
35894;DHT22;21994;48.204;16.516;2023-02-15T11:42:50;6.00;99.90
35894;DHT22;21994;48.204;16.516;2023-02-15T11:45:19;6.20;99.90
35894;DHT22;21994;48.204;16.516;2023-02-15T11:47:57;6.20;99.90
35894;DHT22;21994;48.204;16.516;2023-02-15T11:50:28;6.30;99.90
35894;DHT22;21994;48.204;16.516;2023-02-15T11:52:59;6.40;99.90
35894;DHT22;21994;48.204;16.516;2023-02-15T11:55:27;6.50;99.90
35894;DHT22;21994;48.204;16.516;2023-02-15T12:00:56;6.50;99.90
35894;DHT22;21994;48.204;16.516;2023-02-15T12:06:55;6.50;99.90
35894;DHT22;21994;48.204;16.516;2023-02-15T12:09:34;6.50;99.90
35894;DHT22;21994;48.204;16.516;2023-02-15T12:14:52;6.40;99.90
35894;DHT22;21994;48.204;16.516;2023-02-15T12:17:29;6.50;99.90
35894;DHT22;21994;48.204;16.516;2023-02-15T12:20:03;6.50;99.90
35894;DHT22;21994;48.204;16.516;2023-02-15T12:22:49;6.60;99.90
35894;DHT22;21994;48.204;16.516;2023-02-15T12:25:26;6.60;99.90
35894;DHT22;21994;48.204;16.516;2023-02-15T12:27:58;6.50;99.90
35894;DHT22;21994;48.204;16.516;2023-02-15T12:30:57;6.60;99.90
35894;DHT22;21994;48.204;16.516;2023-02-15T12:38:38;7.00;99.90
35894;DHT22;21994;48.204;16.516;2023-02-15T12:41:05;7.10;99.90
35894;DHT22;21994;48.204;16.516;2023-02-15T12:44:09;7.10;99.90
35894;DHT22;21994;48.204;16.516;2023-02-15T12:46:41;7.10;99.90
35894;DHT22;21994;48.204;16.516;2023-02-15T12:49:17;7.00;99.90
35894;DHT22;21994;48.204;16.516;2023-02-15T12:51:49;7.10;99.90
35894;DHT22;21994;48.204;16.516;2023-02-15T12:54:17;7.10;99.90
35894;DHT22;21994;48.204;16.516;2023-02-15T12:57:12;7.00;99.90
35894;DHT22;21994;48.204;16.516;2023-02-15T12:59:49;7.00;99.90
35894;DHT22;21994;48.204;16.516;2023-02-15T13:02:23;6.90;99.90
35894;DHT22;21994;48.204;16.516;2023-02-15T13:04:51;6.90;99.90
35894;DHT22;21994;48.204;16.516;2023-02-15T13:07:18;6.70;99.90
35894;DHT22;21994;48.204;16.516;2023-02-15T13:09:44;6.90;99.90
35894;DHT22;21994;48.204;16.516;2023-02-15T13:12:11;7.00;99.90
35894;DHT22;21994;48.204;16.516;2023-02-15T13:14:43;7.00;99.90
35894;DHT22;21994;48.204;16.516;2023-02-15T13:17:10;7.00;99.90
35894;DHT22;21994;48.204;16.516;2023-02-15T13:19:47;6.90;99.90
35894;DHT22;21994;48.204;16.516;2023-02-15T13:22:19;7.00;99.90
35894;DHT22;21994;48.204;16.516;2023-02-15T13:24:48;7.00;99.90
35894;DHT22;21994;48.204;16.516;2023-02-15T13:27:18;7.00;99.90
35894;DHT22;21994;48.204;16.516;2023-02-15T13:30:10;6.90;99.90
35894;DHT22;21994;48.204;16.516;2023-02-15T13:32:43;7.00;99.90
35894;DHT22;21994;48.204;16.516;2023-02-15T13:35:13;7.10;99.90
35894;DHT22;21994;48.204;16.516;2023-02-15T13:40:25;7.10;99.90
35894;DHT22;21994;48.204;16.516;2023-02-15T13:43:01;7.00;99.90
35894;DHT22;21994;48.204;16.516;2023-02-15T14:04:43;6.40;99.90
35894;DHT22;21994;48.204;16.516;2023-02-15T14:07:23;6.40;99.90
35894;DHT22;21994;48.204;16.516;2023-02-15T14:25:43;6.60;99.90
35894;DHT22;21994;48.204;16.516;2023-02-15T14:30:48;6.40;99.90
35894;DHT22;21994;48.204;16.516;2023-02-15T14:33:28;6.40;99.90
35894;DHT22;21994;48.204;16.516;2023-02-15T14:35:59;6.30;99.90
35894;DHT22;21994;48.204;16.516;2023-02-15T14:41:47;6.20;99.90
35894;DHT22;21994;48.204;16.516;2023-02-15T14:44:23;6.20;99.90
35894;DHT22;21994;48.204;16.516;2023-02-15T14:49:27;6.30;99.90
35894;DHT22;21994;48.204;16.516;2023-02-15T14:52:08;6.30;99.90
35894;DHT22;21994;48.204;16.516;2023-02-15T15:02:03;6.10;99.90
35894;DHT22;21994;48.204;16.516;2023-02-15T15:04:35;6.10;99.90
35894;DHT22;21994;48.204;16.516;2023-02-15T15:09:48;6.00;99.90
35894;DHT22;21994;48.204;16.516;2023-02-15T15:15:12;5.90;99.90
35894;DHT22;21994;48.204;16.516;2023-02-15T15:20:42;5.70;99.90
35894;DHT22;21994;48.204;16.516;2023-02-15T15:28:52;5.40;99.90
35894;DHT22;21994;48.204;16.516;2023-02-15T15:31:02;5.30;99.90
35894;DHT22;21994;48.204;16.516;2023-02-15T15:41:58;5.00;99.90
35894;DHT22;21994;48.204;16.516;2023-02-15T15:47:05;4.80;99.90
35894;DHT22;21994;48.204;16.516;2023-02-15T15:49:45;4.70;99.90
35894;DHT22;21994;48.204;16.516;2023-02-15T15:52:15;4.60;99.90
35894;DHT22;21994;48.204;16.516;2023-02-15T15:54:46;4.50;99.90
35894;DHT22;21994;48.204;16.516;2023-02-15T15:57:18;4.50;99.90
35894;DHT22;21994;48.204;16.516;2023-02-15T15:59:51;4.30;99.90
35894;DHT22;21994;48.204;16.516;2023-02-15T16:02:17;4.30;99.90
35894;DHT22;21994;48.204;16.516;2023-02-15T16:04:43;4.10;99.90
35894;DHT22;21994;48.204;16.516;2023-02-15T16:09:53;3.80;99.90
35894;DHT22;21994;48.204;16.516;2023-02-15T16:12:22;3.70;99.90
35894;DHT22;21994;48.204;16.516;2023-02-15T16:14:48;3.40;99.90
35894;DHT22;21994;48.204;16.516;2023-02-15T16:17:20;3.30;99.90
35894;DHT22;21994;48.204;16.516;2023-02-15T16:19:49;3.10;99.90
35894;DHT22;21994;48.204;16.516;2023-02-15T16:22:18;2.90;99.90
35894;DHT22;21994;48.204;16.516;2023-02-15T16:27:40;2.50;99.90
35894;DHT22;21994;48.204;16.516;2023-02-15T16:32:42;2.20;99.90
35894;DHT22;21994;48.204;16.516;2023-02-15T16:35:14;2.00;99.90
35894;DHT22;21994;48.204;16.516;2023-02-15T16:37:42;1.90;99.90
35894;DHT22;21994;48.204;16.516;2023-02-15T16:40:41;1.80;99.90
35894;DHT22;21994;48.204;16.516;2023-02-15T16:43:10;1.60;99.90
35894;DHT22;21994;48.204;16.516;2023-02-15T16:45:39;1.50;99.90
35894;DHT22;21994;48.204;16.516;2023-02-15T16:48:08;1.40;99.90
35894;DHT22;21994;48.204;16.516;2023-02-15T16:50:38;1.30;99.90
35894;DHT22;21994;48.204;16.516;2023-02-15T16:53:05;1.30;99.90
35894;DHT22;21994;48.204;16.516;2023-02-15T16:55:38;1.20;99.90
35894;DHT22;21994;48.204;16.516;2023-02-15T16:58:05;1.10;99.90
35894;DHT22;21994;48.204;16.516;2023-02-15T17:00:36;1.00;99.90
35894;DHT22;21994;48.204;16.516;2023-02-15T17:03:13;1.00;99.90
35894;DHT22;21994;48.204;16.516;2023-02-15T17:05:54;0.90;99.90
35894;DHT22;21994;48.204;16.516;2023-02-15T17:13:25;0.70;99.90
35894;DHT22;21994;48.204;16.516;2023-02-15T17:18:23;0.50;99.90
35894;DHT22;21994;48.204;16.516;2023-02-15T17:20:50;0.40;99.90
35894;DHT22;21994;48.204;16.516;2023-02-15T17:23:20;0.40;99.90
35894;DHT22;21994;48.204;16.516;2023-02-15T17:25:48;0.40;99.90
35894;DHT22;21994;48.204;16.516;2023-02-15T17:28:19;0.30;99.90
35894;DHT22;21994;48.204;16.516;2023-02-15T17:30:45;0.30;99.90
35894;DHT22;21994;48.204;16.516;2023-02-15T17:33:19;0.20;99.90
35894;DHT22;21994;48.204;16.516;2023-02-15T17:36:01;0.10;99.90
35894;DHT22;21994;48.204;16.516;2023-02-15T17:41:26;0.00;99.90
35894;DHT22;21994;48.204;16.516;2023-02-15T17:43:56;-0.10;99.90
35894;DHT22;21994;48.204;16.516;2023-02-15T17:46:22;-0.10;99.90
35894;DHT22;21994;48.204;16.516;2023-02-15T17:48:49;-0.20;99.90
35894;DHT22;21994;48.204;16.516;2023-02-15T17:51:16;-0.20;99.90
35894;DHT22;21994;48.204;16.516;2023-02-15T17:53:43;-0.20;99.90
35894;DHT22;21994;48.204;16.516;2023-02-15T17:56:28;-0.30;99.90
35894;DHT22;21994;48.204;16.516;2023-02-15T17:58:53;-0.40;99.90
35894;DHT22;21994;48.204;16.516;2023-02-15T18:01:19;-0.40;99.90
35894;DHT22;21994;48.204;16.516;2023-02-15T18:04:04;-0.50;99.90
35894;DHT22;21994;48.204;16.516;2023-02-15T18:06:51;-0.60;99.90
35894;DHT22;21994;48.204;16.516;2023-02-15T18:09:36;-0.60;99.90
35894;DHT22;21994;48.204;16.516;2023-02-15T18:12:21;-0.70;99.90
35894;DHT22;21994;48.204;16.516;2023-02-15T18:14:55;-0.70;99.90
35894;DHT22;21994;48.204;16.516;2023-02-15T18:17:23;-0.70;99.90
35894;DHT22;21994;48.204;16.516;2023-02-15T18:19:53;-0.80;99.90
35894;DHT22;21994;48.204;16.516;2023-02-15T18:22:19;-0.80;99.90
35894;DHT22;21994;48.204;16.516;2023-02-15T18:24:46;-0.80;99.90
35894;DHT22;21994;48.204;16.516;2023-02-15T18:27:13;-0.90;99.90
35894;DHT22;21994;48.204;16.516;2023-02-15T18:29:39;-1.00;99.90
35894;DHT22;21994;48.204;16.516;2023-02-15T18:32:06;-1.00;99.90
35894;DHT22;21994;48.204;16.516;2023-02-15T18:34:35;-1.10;99.90
35894;DHT22;21994;48.204;16.516;2023-02-15T18:37:04;-1.10;99.90
35894;DHT22;21994;48.204;16.516;2023-02-15T18:39:40;-1.10;99.90
35894;DHT22;21994;48.204;16.516;2023-02-15T18:42:17;-1.20;99.90
35894;DHT22;21994;48.204;16.516;2023-02-15T18:44:45;-1.20;99.90
35894;DHT22;21994;48.204;16.516;2023-02-15T18:47:12;-1.30;99.90
35894;DHT22;21994;48.204;16.516;2023-02-15T18:49:37;-1.20;99.90
35894;DHT22;21994;48.204;16.516;2023-02-15T18:52:03;-1.30;99.90
35894;DHT22;21994;48.204;16.516;2023-02-15T18:54:29;-1.40;99.90
35894;DHT22;21994;48.204;16.516;2023-02-15T18:56:56;-1.40;99.90
35894;DHT22;21994;48.204;16.516;2023-02-15T18:59:24;-1.50;99.90
35894;DHT22;21994;48.204;16.516;2023-02-15T19:01:51;-1.50;99.90
35894;DHT22;21994;48.204;16.516;2023-02-15T19:04:17;-1.40;99.90
35894;DHT22;21994;48.204;16.516;2023-02-15T19:06:44;-1.60;99.90
35894;DHT22;21994;48.204;16.516;2023-02-15T19:09:13;-1.60;99.90
35894;DHT22;21994;48.204;16.516;2023-02-15T19:11:40;-1.60;99.90
35894;DHT22;21994;48.204;16.516;2023-02-15T19:14:08;-1.60;99.90
35894;DHT22;21994;48.204;16.516;2023-02-15T19:16:48;-1.60;99.90
35894;DHT22;21994;48.204;16.516;2023-02-15T19:19:13;-1.70;99.90
35894;DHT22;21994;48.204;16.516;2023-02-15T19:21:39;-1.70;99.90
35894;DHT22;21994;48.204;16.516;2023-02-15T19:24:06;-1.70;99.90
35894;DHT22;21994;48.204;16.516;2023-02-15T19:26:39;-1.80;99.90
35894;DHT22;21994;48.204;16.516;2023-02-15T19:29:05;-1.80;99.90
35894;DHT22;21994;48.204;16.516;2023-02-15T19:31:31;-1.80;99.90
35894;DHT22;21994;48.204;16.516;2023-02-15T19:33:57;-1.90;99.90